Terminal Aerodrome Forecast
Issued by NWS Sterling, VA

Current Version | Previous Version | Graphics & Text | Print | Product List | Glossary On
Versions: 1 2 3 4 5 6 7 8 9 10 11 12 13 14 15 16 17 18 19 20 21 22 23 24 25 26 27 28 29 30 31
328
FTUS41 KLWX 232106 AAA
TAFDCA
TAF AMD
KDCA 232106Z 2321/2424 20005KT P6SM OVC010
     FM240300 20006KT 3SM BR SCT015 BKN025
     FM240900 22004KT 3SM -DZ BR BKN015 OVC025
     FM241200 VRB03KT 3SM -DZ BR BKN008 OVC025
     FM241500 VRB03KT 3SM BR SCT025 OVC035
     FM242100 07005KT 3SM -SHRA SCT025 OVC090=

USA.gov is the U.S. government's official web portal to all federal, state and local government web resources and services.